Time;durP1;ratioP1;P1;durP2;ratioP2;P2;SDS_P1;SDS_P2;PMS_P1;PMS_P2;Temp;Humidity;BMP_temperature;BMP_pressure;BME280_temperature;BME280_humidity;BME280_pressure;Samples;Min_cycle;Max_cycle;Signal;HPM_P1;HPM_P2
2023/05/02 00:02:03;;;;;;;41.88;24.17;;;13.20;97.20;;;;;;5059353;28;20036;-67
2023/05/02 00:04:29;;;;;;;42.33;24.88;;;13.40;97.30;;;;;;5058357;28;20128;-69
2023/05/02 00:06:55;;;;;;;40.47;24.73;;;13.40;97.10;;;;;;5058395;28;20033;-67
2023/05/02 00:09:21;;;;;;;39.97;24.63;;;13.40;96.70;;;;;;5059267;28;20068;-66
2023/05/02 00:11:47;;;;;;;40.10;24.67;;;13.40;97.60;;;;;;5059141;28;20392;-68
2023/05/02 00:14:13;;;;;;;42.03;24.67;;;13.40;96.40;;;;;;5075266;28;20107;-67
2023/05/02 00:16:38;;;;;;;40.40;24.90;;;13.40;94.60;;;;;;5058365;28;20296;-66
2023/05/02 00:19:04;;;;;;;34.67;22.98;;;13.40;94.30;;;;;;5058282;28;20032;-66
2023/05/02 00:21:31;;;;;;;34.72;22.50;;;13.40;94.30;;;;;;5058219;28;20199;-66
2023/05/02 00:23:57;;;;;;;34.10;22.10;;;13.30;93.90;;;;;;5091734;28;20289;-65
2023/05/02 00:26:23;;;;;;;35.85;22.58;;;13.40;94.10;;;;;;5041693;28;20029;-69
2023/05/02 00:28:49;;;;;;;38.72;23.35;;;13.40;93.70;;;;;;5058779;28;20037;-67
2023/05/02 00:31:15;;;;;;;36.10;22.38;;;13.40;93.20;;;;;;5057910;28;20318;-68
2023/05/02 00:33:41;;;;;;;34.10;22.50;;;13.30;93.60;;;;;;5074820;28;20029;-67
2023/05/02 00:36:19;;;;;;;34.38;22.40;;;13.30;93.80;;;;;;5058656;28;20345;-67
2023/05/02 00:38:45;;;;;;;37.40;24.33;;;13.30;94.50;;;;;;5058609;28;20040;-68
2023/05/02 00:41:11;;;;;;;37.35;24.08;;;13.30;94.10;;;;;;5057843;28;20400;-70
2023/05/02 00:43:40;;;;;;;35.63;23.45;;;13.30;93.50;;;;;;5057728;28;20124;-68
2023/05/02 00:46:06;;;;;;;39.00;24.50;;;13.40;92.40;;;;;;5057853;28;20040;-69
2023/05/02 00:48:32;;;;;;;37.40;24.80;;;13.40;91.30;;;;;;5058463;28;20351;-73
2023/05/02 00:51:01;;;;;;;39.88;25.38;;;13.40;92.50;;;;;;5057731;28;20120;-68
2023/05/02 00:53:27;;;;;;;41.80;24.58;;;13.30;92.40;;;;;;5090931;28;20089;-68
2023/05/02 00:55:53;;;;;;;41.15;25.08;;;13.20;94.60;;;;;;5074240;28;20029;-69
2023/05/02 00:58:19;;;;;;;36.67;24.38;;;13.20;94.70;;;;;;5040858;28;20050;-69
2023/05/02 01:00:48;;;;;;;38.05;24.73;;;13.10;95.50;;;;;;5090992;28;20091;-69
2023/05/02 01:03:23;;;;;;;37.13;23.00;;;13.10;95.70;;;;;;5057607;28;20037;-69
2023/05/02 01:06:05;;;;;;;40.95;25.63;;;13.00;96.30;;;;;;5058216;28;20107;-67
2023/05/02 01:08:42;;;;;;;42.53;25.48;;;12.90;98.10;;;;;;5058187;28;20127;-67
2023/05/02 01:11:16;;;;;;;41.20;25.95;;;12.90;98.20;;;;;;5057961;28;20040;-71
2023/05/02 01:13:44;;;;;;;39.45;25.48;;;12.80;98.60;;;;;;5058052;28;20028;-67
2023/05/02 01:16:13;;;;;;;40.15;24.98;;;12.70;99.90;;;;;;5057046;28;20025;-67
2023/05/02 01:18:41;;;;;;;39.22;25.63;;;12.70;99.90;;;;;;5057065;28;20300;-66
2023/05/02 01:21:10;;;;;;;41.30;25.08;;;12.70;99.90;;;;;;5057750;28;20048;-67
2023/05/02 01:23:50;;;;;;;35.88;21.90;;;12.70;99.90;;;;;;5057985;28;20475;-67
2023/05/02 01:26:28;;;;;;;40.05;22.65;;;12.70;99.90;;;;;;5090717;28;20419;-67
2023/05/02 01:29:02;;;;;;;33.28;21.88;;;12.70;99.10;;;;;;5057764;28;20086;-67
2023/05/02 01:31:33;;;;;;;32.28;20.08;;;12.70;98.70;;;;;;5057537;28;20234;-67
2023/05/02 01:34:01;;;;;;;32.83;20.48;;;12.60;98.80;;;;;;5057577;28;20082;-67
2023/05/02 01:36:30;;;;;;;30.60;19.20;;;12.60;97.90;;;;;;5057568;28;20056;-67
2023/05/02 01:38:58;;;;;;;31.02;18.35;;;12.40;99.00;;;;;;5057533;28;20395;-67
2023/05/02 01:41:30;;;;;;;31.52;19.10;;;12.30;99.90;;;;;;5056999;28;20044;-67
2023/05/02 01:44:01;;;;;;;27.92;17.95;;;12.20;99.90;;;;;;5056861;28;20100;-68
2023/05/02 01:46:33;;;;;;;31.80;19.00;;;12.20;99.90;;;;;;5057517;28;20037;-69
2023/05/02 01:49:02;;;;;;;29.43;18.57;;;12.10;99.90;;;;;;5057511;28;20036;-68
2023/05/02 01:51:34;;;;;;;28.95;17.90;;;12.00;99.90;;;;;;5057189;28;20067;-68
2023/05/02 01:54:04;;;;;;;29.83;18.23;;;11.90;99.90;;;;;;5057236;28;20284;-68
2023/05/02 01:56:33;;;;;;;29.25;17.45;;;11.90;99.90;;;;;;5056657;28;20120;-67
2023/05/02 01:59:01;;;;;;;25.33;16.95;;;11.90;99.90;;;;;;5057159;28;20033;-67
2023/05/02 02:01:29;;;;;;;27.98;17.05;;;11.80;99.90;;;;;;5056487;28;20297;-67
2023/05/02 02:03:57;;;;;;;28.27;17.08;;;11.90;99.90;;;;;;5056157;28;20059;-67
2023/05/02 02:06:24;;;;;;;27.48;17.15;;;11.80;99.90;;;;;;5056982;28;20143;-67
2023/05/02 02:08:50;;;;;;;28.25;16.55;;;11.80;99.90;;;;;;5056456;28;20024;-67
2023/05/02 02:11:26;;;;;;;28.10;17.35;;;11.80;99.90;;;;;;5056144;28;20098;-67
2023/05/02 02:14:02;;;;;;;26.48;16.08;;;11.90;99.90;;;;;;5056200;28;20037;-68
2023/05/02 02:16:30;;;;;;;27.90;16.33;;;12.00;99.90;;;;;;5055368;28;20373;-67
2023/05/02 02:18:58;;;;;;;26.45;16.50;;;12.00;99.90;;;;;;5056870;28;20355;-67
2023/05/02 02:21:27;;;;;;;28.00;17.17;;;12.10;99.90;;;;;;5056760;28;20359;-67
2023/05/02 02:23:56;;;;;;;26.95;16.75;;;12.00;99.90;;;;;;5056810;28;20029;-67
2023/05/02 02:26:22;;;;;;;26.77;16.90;;;12.10;99.90;;;;;;5089500;28;20033;-67
2023/05/02 02:28:49;;;;;;;27.20;16.40;;;12.20;99.90;;;;;;5055956;28;20025;-67
2023/05/02 02:31:15;;;;;;;25.80;16.63;;;12.10;99.30;;;;;;5056564;28;20043;-67
2023/05/02 02:33:41;;;;;;;27.33;16.85;;;12.30;99.40;;;;;;5039494;28;20337;-68
2023/05/02 02:36:15;;;;;;;24.67;16.38;;;12.30;98.60;;;;;;5089448;28;20124;-67
2023/05/02 02:39:16;;;;;;;25.73;16.65;;;12.40;98.00;;;;;;5056770;28;20044;-67
2023/05/02 02:41:49;;;;;;;26.27;16.48;;;12.40;97.50;;;;;;5032721;28;20067;-67
2023/05/02 02:44:41;;;;;;;25.98;15.80;;;12.50;97.40;;;;;;5056659;28;20064;-67
2023/05/02 02:47:31;;;;;;;26.60;15.63;;;12.60;95.80;;;;;;5056596;28;20320;-67
2023/05/02 02:50:11;;;;;;;20.42;13.75;;;12.60;94.40;;;;;;5089369;28;20048;-67
2023/05/02 02:53:05;;;;;;;18.65;13.18;;;12.70;91.50;;;;;;5055740;28;20041;-67
2023/05/02 02:56:03;;;;;;;21.45;12.35;;;12.70;90.10;;;;;;5055934;28;20033;-72
2023/05/02 02:58:44;;;;;;;18.00;11.73;;;12.70;80.20;;;;;;5045091;28;20162;-66
2023/05/02 03:01:18;;;;;;;19.23;12.45;;;12.70;79.00;;;;;;5055685;28;20063;-67
2023/05/02 03:03:46;;;;;;;19.67;13.07;;;12.70;81.60;;;;;;5088980;28;20106;-67
2023/05/02 03:06:12;;;;;;;18.92;13.35;;;12.70;81.70;;;;;;5089329;28;20346;-67
2023/05/02 03:08:40;;;;;;;19.77;13.65;;;12.60;84.20;;;;;;5055664;28;20036;-67
2023/05/02 03:11:07;;;;;;;18.77;13.05;;;12.50;84.90;;;;;;5055450;28;20033;-66
2023/05/02 03:13:33;;;;;;;19.30;13.70;;;12.50;88.30;;;;;;5055617;28;20040;-67
2023/05/02 03:16:24;;;;;;;21.20;13.70;;;12.40;90.50;;;;;;5055451;28;20037;-68
2023/05/02 03:18:50;;;;;;;22.38;14.25;;;12.30;91.40;;;;;;5072258;28;20281;-67
2023/05/02 03:21:16;;;;;;;18.27;13.60;;;12.30;91.60;;;;;;5055549;28;20051;-68
2023/05/02 03:23:42;;;;;;;22.02;14.50;;;12.30;93.10;;;;;;5072377;28;20043;-68
2023/05/02 03:26:09;;;;;;;23.38;15.02;;;12.40;93.10;;;;;;5055386;28;20047;-68
2023/05/02 03:28:36;;;;;;;21.40;14.50;;;12.40;93.80;;;;;;5059068;28;20029;-67
2023/05/02 03:31:03;;;;;;;22.38;15.63;;;12.40;92.70;;;;;;5042747;28;20029;-68
2023/05/02 03:33:32;;;;;;;22.42;14.75;;;12.60;91.50;;;;;;5075301;28;20098;-69
2023/05/02 03:35:58;;;;;;;19.75;13.98;;;12.60;90.80;;;;;;5059056;28;20025;-67
2023/05/02 03:38:24;;;;;;;18.55;13.45;;;12.60;90.00;;;;;;5042417;28;20036;-67
2023/05/02 03:40:50;;;;;;;21.08;14.07;;;12.60;89.60;;;;;;5075842;28;20115;-68
2023/05/02 03:43:16;;;;;;;19.10;13.95;;;12.50;90.20;;;;;;5058829;28;20048;-67
2023/05/02 03:45:43;;;;;;;19.80;14.68;;;12.50;90.30;;;;;;5075668;28;20424;-67
2023/05/02 03:48:09;;;;;;;21.00;14.65;;;12.50;90.00;;;;;;5058793;28;20352;-68
2023/05/02 03:50:36;;;;;;;19.77;13.77;;;12.60;87.10;;;;;;5058820;28;20033;-68
2023/05/02 03:53:02;;;;;;;18.77;14.75;;;12.60;85.80;;;;;;5075449;28;20036;-66
2023/05/02 03:55:41;;;;;;;22.58;15.02;;;12.50;87.30;;;;;;5043536;28;20102;-68
2023/05/02 03:58:11;;;;;;;19.92;13.93;;;12.60;84.90;;;;;;5058634;28;20021;-68
2023/05/02 04:00:37;;;;;;;21.83;14.35;;;12.50;87.70;;;;;;5058700;28;20105;-69
2023/05/02 04:03:06;;;;;;;18.15;13.38;;;12.40;90.60;;;;;;5042217;28;20053;-69
2023/05/02 04:05:33;;;;;;;21.27;13.35;;;12.50;86.80;;;;;;5075284;28;20032;-65
2023/05/02 04:08:01;;;;;;;21.60;13.45;;;12.50;87.50;;;;;;5041928;28;20029;-65
2023/05/02 04:10:28;;;;;;;19.25;12.80;;;12.50;88.30;;;;;;5058187;28;20052;-67
2023/05/02 04:12:57;;;;;;;18.48;11.98;;;12.50;89.10;;;;;;5042239;28;20427;-67
2023/05/02 04:15:23;;;;;;;17.55;11.82;;;12.50;86.30;;;;;;5074759;28;20025;-67
2023/05/02 04:17:51;;;;;;;19.00;12.10;;;12.40;88.50;;;;;;5057857;28;20029;-66
2023/05/02 04:20:18;;;;;;;15.75;11.18;;;12.40;90.30;;;;;;5057930;28;20033;-69
2023/05/02 04:22:49;;;;;;;17.17;11.88;;;12.30;91.70;;;;;;5091402;28;20438;-68
2023/05/02 04:25:15;;;;;;;16.63;11.55;;;12.30;91.80;;;;;;5041672;28;20041;-67
2023/05/02 04:27:42;;;;;;;18.27;12.27;;;12.30;92.90;;;;;;5041707;28;20033;-68
2023/05/02 04:30:11;;;;;;;22.50;13.60;;;12.40;91.80;;;;;;5091560;28;20025;-67
2023/05/02 04:32:38;;;;;;;20.90;14.30;;;12.60;91.00;;;;;;5074209;28;20084;-68
2023/05/02 04:35:05;;;;;;;21.52;12.65;;;12.50;91.60;;;;;;5057813;28;20372;-67
2023/05/02 04:37:31;;;;;;;21.73;12.38;;;12.50;92.90;;;;;;5041468;28;20413;-66
2023/05/02 04:39:59;;;;;;;20.15;13.25;;;12.50;92.00;;;;;;5040921;28;20029;-68
2023/05/02 04:42:28;;;;;;;16.65;13.02;;;12.50;92.90;;;;;;5074121;28;20119;-67
2023/05/02 04:45:05;;;;;;;19.85;13.93;;;12.50;92.90;;;;;;5061060;28;20359;-69
2023/05/02 04:47:31;;;;;;;19.20;13.73;;;12.70;91.80;;;;;;5057735;28;20040;-67
2023/05/02 04:49:56;;;;;;;20.75;14.20;;;12.70;90.90;;;;;;5057758;28;20394;-67
2023/05/02 04:52:22;;;;;;;19.50;13.88;;;12.70;90.00;;;;;;5074383;28;20300;-67
2023/05/02 04:54:48;;;;;;;21.30;13.30;;;12.80;88.90;;;;;;5058348;28;20041;-65
2023/05/02 04:57:14;;;;;;;19.95;13.25;;;12.70;90.70;;;;;;5057450;28;20044;-66
2023/05/02 04:59:45;;;;;;;22.20;13.90;;;12.60;91.50;;;;;;5090766;28;20051;-68
2023/05/02 05:02:11;;;;;;;22.40;13.90;;;12.50;91.80;;;;;;5040790;28;20415;-67
2023/05/02 05:04:37;;;;;;;21.75;14.82;;;12.50;93.00;;;;;;5040692;28;20144;-68
2023/05/02 05:07:04;;;;;;;20.20;15.52;;;12.60;92.80;;;;;;5074159;28;20478;-67
2023/05/02 05:09:30;;;;;;;27.55;16.50;;;12.60;91.10;;;;;;5057166;28;20475;-70
2023/05/02 05:11:57;;;;;;;23.35;15.88;;;12.60;92.00;;;;;;5040563;28;20408;-67
2023/05/02 05:14:23;;;;;;;25.30;15.50;;;12.70;90.80;;;;;;5057914;28;20025;-68
2023/05/02 05:16:52;;;;;;;24.70;16.38;;;12.70;88.60;;;;;;5090591;28;20444;-68
2023/05/02 05:19:19;;;;;;;21.92;16.05;;;12.80;83.30;;;;;;5057212;28;20025;-68
2023/05/02 05:21:45;;;;;;;28.17;16.13;;;12.80;83.40;;;;;;5057087;28;20029;-66
2023/05/02 05:24:14;;;;;;;20.45;15.38;;;12.80;81.90;;;;;;5074112;28;20044;-67
2023/05/02 05:26:40;;;;;;;22.20;16.58;;;12.80;74.60;;;;;;5057680;28;20029;-67
2023/05/02 05:29:06;;;;;;;22.13;16.20;;;12.80;71.80;;;;;;5040283;28;20052;-67
2023/05/02 05:31:37;;;;;;;22.38;16.95;;;12.90;68.80;;;;;;5090372;28;20408;-66
2023/05/02 05:34:05;;;;;;;21.98;16.38;;;12.70;61.30;;;;;;5056753;28;20029;-65
2023/05/02 05:36:32;;;;;;;24.40;17.38;;;12.80;64.70;;;;;;5073209;28;20044;-66
2023/05/02 05:38:58;;;;;;;25.38;17.33;;;12.80;60.50;;;;;;5073232;28;20036;-66
2023/05/02 05:41:24;;;;;;;24.60;16.92;;;12.90;57.50;;;;;;5073126;28;20160;-64
2023/05/02 05:43:56;;;;;;;22.95;15.80;;;12.80;58.20;;;;;;5074135;28;20045;-66
2023/05/02 05:46:23;;;;;;;20.30;13.70;;;12.90;53.50;;;;;;5040115;28;20029;-64
2023/05/02 05:48:49;;;;;;;20.38;12.25;;;12.90;46.60;;;;;;5039899;28;20423;-65
2023/05/02 05:51:15;;;;;;;16.27;10.18;;;12.80;45.40;;;;;;5073023;28;20029;-63
2023/05/02 05:53:41;;;;;;;17.77;9.00;;;12.80;37.30;;;;;;5056318;28;20029;-66
2023/05/02 05:56:12;;;;;;;13.68;8.23;;;12.70;38.60;;;;;;5039883;28;20036;-67
2023/05/02 05:58:43;;;;;;;12.80;7.13;;;12.80;28.30;;;;;;5072379;28;20039;-65
2023/05/02 06:01:11;;;;;;;16.25;8.25;;;12.70;26.30;;;;;;5089667;28;20376;-66
2023/05/02 06:03:37;;;;;;;13.68;8.75;;;12.70;17.80;;;;;;5056053;28;20076;-65
2023/05/02 06:06:03;;;;;;;16.13;8.93;;;12.70;11.60;;;;;;5056902;28;20122;-65
2023/05/02 06:08:29;;;;;;;13.57;8.20;;;12.70;9.70;;;;;;5089719;28;20345;-66
2023/05/02 06:10:55;;;;;;;10.15;6.60;;;12.90;4.10;;;;;;5056147;28;20052;-64
2023/05/02 06:13:21;;;;;;;11.90;6.82;;;12.70;1.00;;;;;;5057345;28;20021;-66
2023/05/02 06:15:48;;;;;;;7.88;6.07;;;12.80;1.00;;;;;;5072836;28;20057;-65
2023/05/02 06:18:14;;;;;;;10.98;5.60;;;12.90;1.00;;;;;;5039205;28;20064;-63
2023/05/02 06:20:41;;;;;;;8.77;4.40;;;13.00;1.00;;;;;;5056656;28;20029;-66
2023/05/02 06:23:07;;;;;;;6.90;3.67;;;13.10;1.00;;;;;;5055816;28;20090;-65
2023/05/02 06:25:36;;;;;;;4.15;2.78;;;13.20;1.00;;;;;;5055985;28;20033;-64
2023/05/02 06:28:02;;;;;;;6.70;2.85;;;13.40;1.00;;;;;;5056927;28;20299;-62
2023/05/02 06:30:28;;;;;;;8.48;2.67;;;13.50;1.00;;;;;;5056604;28;20029;-66
2023/05/02 06:32:54;;;;;;;7.55;1.70;;;13.70;1.00;;;;;;5056891;28;20029;-69
2023/05/02 06:35:19;;;;;;;4.72;1.50;;;13.50;1.00;;;;;;5039390;28;20058;-68
2023/05/02 06:37:45;;;;;;;5.75;1.75;;;13.50;1.00;;;;;;5056620;28;20037;-67
2023/05/02 06:40:12;;;;;;;5.22;1.67;;;13.50;1.00;;;;;;5056537;28;20342;-68
2023/05/02 06:42:38;;;;;;;3.55;1.42;;;13.50;1.00;;;;;;5089377;28;20040;-66
2023/05/02 06:45:04;;;;;;;6.88;1.85;;;13.50;1.00;;;;;;5056546;28;20297;-67
2023/05/02 06:47:30;;;;;;;5.53;1.40;;;13.60;1.00;;;;;;5039372;28;20033;-66
2023/05/02 06:49:56;;;;;;;6.28;1.55;;;13.70;1.00;;;;;;5039136;28;20037;-66
2023/05/02 06:52:22;;;;;;;5.20;1.50;;;13.90;1.00;;;;;;5056368;28;20111;-66
2023/05/02 06:54:47;;;;;;;7.50;1.70;;;14.00;1.00;;;;;;5057076;28;20033;-65
2023/05/02 06:57:14;;;;;;;8.48;2.38;;;14.00;1.00;;;;;;5055690;28;20025;-69
2023/05/02 06:59:40;;;;;;;12.52;2.45;;;14.20;1.00;;;;;;5056486;28;20092;-66
2023/05/02 07:02:05;;;;;;;4.18;2.08;;;14.20;1.00;;;;;;5057323;28;20108;-71
2023/05/02 07:04:31;;;;;;;4.40;2.55;;;14.20;1.00;;;;;;5060232;28;20105;-65
2023/05/02 07:06:57;;;;;;;5.93;3.05;;;14.00;1.00;;;;;;5059687;28;20068;-65
2023/05/02 07:09:23;;;;;;;9.07;3.78;;;14.10;1.00;;;;;;5059463;28;20025;-66
2023/05/02 07:11:49;;;;;;;6.45;3.28;;;14.30;1.00;;;;;;5076435;28;20116;-66
2023/05/02 07:14:15;;;;;;;7.68;4.07;;;14.40;1.00;;;;;;5042699;28;20044;-65
2023/05/02 07:16:40;;;;;;;8.00;3.97;;;14.50;1.00;;;;;;5060115;28;20400;-65
2023/05/02 07:19:06;;;;;;;7.13;3.80;;;14.50;1.00;;;;;;5042754;28;20037;-66
2023/05/02 07:21:32;;;;;;;7.32;4.03;;;14.10;1.00;;;;;;5092917;28;20033;-66
2023/05/02 07:23:58;;;;;;;5.78;3.50;;;14.20;1.00;;;;;;5042757;28;20036;-69
2023/05/02 07:26:25;;;;;;;8.38;3.30;;;14.40;1.00;;;;;;5059161;28;20068;-68
2023/05/02 07:28:50;;;;;;;6.90;3.20;;;14.30;1.00;;;;;;5042478;28;20040;-65
2023/05/02 07:31:16;;;;;;;9.07;3.65;;;14.50;1.00;;;;;;5092544;28;20037;-66
2023/05/02 07:33:42;;;;;;;9.25;4.10;;;14.00;1.00;;;;;;5059932;28;20404;-66
2023/05/02 07:36:08;;;;;;;8.75;3.80;;;13.60;1.00;;;;;;5060156;28;20061;-65
2023/05/02 07:38:34;;;;;;;5.28;3.88;;;13.60;1.00;;;;;;5042225;28;20040;-65
2023/05/02 07:41:00;;;;;;;6.03;3.53;;;13.40;1.00;;;;;;5059163;28;20041;-65
2023/05/02 07:43:26;;;;;;;7.53;3.72;;;13.80;1.00;;;;;;5058970;28;20351;-65
2023/05/02 07:45:52;;;;;;;5.45;2.83;;;14.00;1.00;;;;;;5059596;28;20123;-65
2023/05/02 07:48:19;;;;;;;8.60;2.50;;;14.30;1.00;;;;;;5075554;28;20109;-66
2023/05/02 07:50:45;;;;;;;5.57;2.58;;;14.50;1.00;;;;;;5059429;28;20408;-66
2023/05/02 07:53:11;;;;;;;6.97;2.38;;;14.50;1.00;;;;;;5059472;28;20029;-65
2023/05/02 07:55:37;;;;;;;3.20;2.08;;;14.40;1.00;;;;;;5059535;28;20017;-65
2023/05/02 07:58:03;;;;;;;4.88;2.20;;;14.30;1.00;;;;;;5075363;28;20128;-65
2023/05/02 08:00:29;;;;;;;2.58;1.55;;;14.50;1.00;;;;;;5059337;28;20056;-66
2023/05/02 08:02:55;;;;;;;7.10;1.70;;;14.60;1.00;;;;;;5059171;28;20028;-67
2023/05/02 08:05:21;;;;;;;4.30;1.60;;;14.70;1.00;;;;;;5060104;28;20041;-67
2023/05/02 08:07:47;;;;;;;3.88;1.60;;;14.80;1.00;;;;;;5059335;28;20192;-66
2023/05/02 08:10:13;;;;;;;6.70;1.60;;;15.10;1.00;;;;;;5059267;28;20033;-67
2023/05/02 08:12:40;;;;;;;6.28;1.45;;;15.40;1.00;;;;;;5058125;28;20045;-65
2023/05/02 08:15:07;;;;;;;6.00;1.70;;;15.20;1.00;;;;;;5074262;28;20029;-66
2023/05/02 08:17:33;;;;;;;3.42;1.30;;;15.30;1.00;;;;;;5091953;28;20028;-66
2023/05/02 08:19:59;;;;;;;4.55;1.90;;;15.40;1.00;;;;;;5059238;28;20029;-66
2023/05/02 08:22:25;;;;;;;5.57;2.42;;;15.40;1.00;;;;;;5074933;28;20098;-68
2023/05/02 08:24:51;;;;;;;7.53;1.90;;;15.40;1.00;;;;;;5058974;28;20404;-66
2023/05/02 08:27:17;;;;;;;3.63;2.10;;;15.60;1.00;;;;;;5058306;28;20495;-66
2023/05/02 08:29:42;;;;;;;5.80;2.35;;;15.60;99.90;;;;;;5058368;28;20033;-66
2023/05/02 08:32:08;;;;;;;6.78;2.70;;;15.70;99.90;;;;;;5058909;28;20063;-67
2023/05/02 08:34:34;;;;;;;4.22;2.33;;;15.80;99.90;;;;;;5058212;28;20044;-65
2023/05/02 08:37:00;;;;;;;6.45;2.55;;;15.80;99.90;;;;;;5058075;28;20107;-66
2023/05/02 08:39:26;;;;;;;4.35;2.08;;;16.10;99.90;;;;;;5041303;28;20029;-65
2023/05/02 08:41:51;;;;;;;5.00;2.22;;;16.30;99.90;;;;;;5057990;28;20162;-65
2023/05/02 08:44:17;;;;;;;4.85;2.50;;;16.30;99.90;;;;;;5057948;28;20412;-68
2023/05/02 08:46:44;;;;;;;5.15;2.53;;;16.50;99.90;;;;;;5058056;28;20029;-67
2023/05/02 08:49:11;;;;;;;5.18;3.13;;;16.80;1.00;;;;;;5074486;28;20064;-67
2023/05/02 08:51:38;;;;;;;5.45;3.25;;;16.70;1.00;;;;;;5057788;28;20044;-67
2023/05/02 08:54:08;;;;;;;7.30;3.72;;;16.30;1.00;;;;;;5057678;28;20086;-67
2023/05/02 08:56:34;;;;;;;11.73;3.67;;;16.00;1.00;;;;;;5058349;28;20039;-67
2023/05/02 08:59:00;;;;;;;6.88;3.92;;;16.10;99.90;;;;;;5058222;28;20115;-66
2023/05/02 09:01:29;;;;;;;10.40;3.38;;;16.30;1.00;;;;;;5040834;28;20135;-66
2023/05/02 09:03:58;;;;;;;6.93;4.60;;;16.00;99.90;;;;;;5090706;28;20048;-66
2023/05/02 09:06:25;;;;;;;10.45;5.57;;;16.20;99.90;;;;;;5041018;28;20331;-67
2023/05/02 09:08:51;;;;;;;9.38;5.18;;;16.30;99.90;;;;;;5057563;28;20398;-66
2023/05/02 09:11:18;;;;;;;9.30;5.13;;;16.50;1.00;;;;;;5057939;28;20048;-65
2023/05/02 09:13:51;;;;;;;8.23;4.78;;;16.10;99.90;;;;;;5058023;28;20032;-65
2023/05/02 09:16:22;;;;;;;6.15;3.60;;;15.70;99.90;;;;;;5073991;28;20072;-65
2023/05/02 09:18:54;;;;;;;7.10;3.92;;;15.50;99.90;;;;;;5057217;28;20060;-66
2023/05/02 09:21:24;;;;;;;7.28;3.60;;;15.40;1.00;;;;;;5057926;28;20408;-71
2023/05/02 09:24:00;;;;;;;6.43;2.55;;;15.70;99.90;;;;;;5057839;28;20404;-66
2023/05/02 09:26:32;;;;;;;6.80;2.47;;;15.90;99.90;;;;;;5090283;28;20033;-65
2023/05/02 09:28:59;;;;;;;5.07;1.98;;;15.70;99.90;;;;;;5056978;28;20308;-66
2023/05/02 09:31:33;;;;;;;4.30;2.20;;;15.50;99.90;;;;;;5056772;28;20278;-66
2023/05/02 09:34:13;;;;;;;6.53;2.50;;;15.50;99.90;;;;;;5057744;28;20025;-69
2023/05/02 09:36:49;;;;;;;9.73;2.78;;;15.80;99.90;;;;;;5057631;28;20331;-67
2023/05/02 09:39:17;;;;;;;6.07;2.40;;;16.00;99.90;;;;;;5057695;28;20036;-66
2023/05/02 09:41:45;;;;;;;5.97;2.25;;;16.10;99.90;;;;;;5090304;28;20331;-66
2023/05/02 09:44:13;;;;;;;6.70;2.15;;;16.10;99.90;;;;;;5057492;28;20170;-66
2023/05/02 09:46:43;;;;;;;6.97;2.05;;;16.40;99.90;;;;;;5057509;28;20142;-66
2023/05/02 09:49:09;;;;;;;5.07;2.28;;;16.70;99.90;;;;;;5057491;28;20029;-66
2023/05/02 09:51:35;;;;;;;7.53;2.47;;;17.00;1.00;;;;;;5057398;28;20044;-66
2023/05/02 09:54:01;;;;;;;6.03;2.20;;;16.80;1.00;;;;;;5056654;28;20111;-65
2023/05/02 09:56:27;;;;;;;6.85;2.30;;;16.20;1.00;;;;;;5057309;28;20083;-66
2023/05/02 09:59:13;;;;;;;8.32;2.75;;;16.30;1.00;;;;;;5056622;28;20032;-66
2023/05/02 10:01:43;;;;;;;6.18;2.20;;;16.50;1.00;;;;;;5090279;28;20029;-66
2023/05/02 10:04:17;;;;;;;7.32;2.20;;;16.70;1.00;;;;;;5056936;28;20040;-66
2023/05/02 10:06:44;;;;;;;7.07;2.58;;;16.40;1.00;;;;;;5090172;28;20052;-66
2023/05/02 10:09:11;;;;;;;9.18;2.42;;;16.50;1.00;;;;;;5072951;28;20037;-67
2023/05/02 10:11:44;;;;;;;4.00;2.40;;;16.70;99.90;;;;;;5057071;28;20304;-66
2023/05/02 10:14:11;;;;;;;;;;;16.90;1.00;;;;;;5056645;28;20299;-64
2023/05/02 10:17:01;;;;;;;6.97;2.47;;;16.90;1.00;;;;;;5056944;28;19915;-62
2023/05/02 10:19:59;;;;;;;5.93;2.60;;;17.30;1.00;;;;;;5057530;28;20060;-64
2023/05/02 10:22:26;;;;;;;7.55;2.67;;;17.20;99.90;;;;;;5056402;28;20348;-64
2023/05/02 10:24:52;;;;;;;4.63;2.05;;;16.80;99.90;;;;;;5057446;28;20297;-68
2023/05/02 10:27:18;;;;;;;7.53;2.58;;;17.00;1.00;;;;;;5089988;28;20029;-68
2023/05/02 10:29:45;;;;;;;8.68;2.72;;;17.10;99.90;;;;;;5089614;28;20056;-71
2023/05/02 10:32:13;;;;;;;6.38;2.45;;;17.40;1.00;;;;;;5056013;28;20033;-66
2023/05/02 10:34:41;;;;;;;5.68;2.10;;;17.30;1.00;;;;;;5056397;28;20032;-65
2023/05/02 10:37:06;;;;;;;7.95;2.40;;;17.70;99.90;;;;;;5055063;28;20067;-67
2023/05/02 10:39:32;;;;;;;7.85;2.50;;;18.00;99.90;;;;;;5039473;28;20349;-64
2023/05/02 10:42:02;;;;;;;5.50;2.10;;;18.20;1.00;;;;;;5055984;28;20071;-65
2023/05/02 10:44:39;;;;;;;8.60;2.40;;;18.40;1.00;;;;;;5089584;28;20037;-66
2023/05/02 10:47:25;;;;;;;7.60;2.33;;;18.50;1.00;;;;;;5056674;28;20040;-67
2023/05/02 10:49:57;;;;;;;4.68;2.00;;;18.80;99.90;;;;;;5056032;28;20036;-68
2023/05/02 10:52:33;;;;;;;5.38;2.20;;;19.10;12.60;;;;;;5056814;28;20087;-65
2023/05/02 10:55:16;;;;;;;4.80;2.03;;;19.20;1.00;;;;;;5089348;28;20040;-63
2023/05/02 10:57:57;;;;;;;5.35;2.20;;;19.10;1.00;;;;;;5055743;28;20037;-64
2023/05/02 11:00:28;;;;;;;4.88;1.92;;;19.80;1.00;;;;;;5056447;28;20021;-64
2023/05/02 11:02:55;;;;;;;5.55;2.05;;;20.80;1.00;;;;;;5055578;28;20307;-63
2023/05/02 11:05:25;;;;;;;6.80;2.17;;;20.60;99.90;;;;;;5056599;28;20043;-71
2023/05/02 11:08:16;;;;;;;5.35;2.25;;;21.70;45.10;;;;;;5056612;28;20104;-65
2023/05/02 11:10:42;;;;;;;7.25;2.10;;;22.80;1.00;;;;;;5055838;28;20039;-65
2023/05/02 11:13:08;;;;;;;5.75;2.03;;;23.60;99.90;;;;;;5056443;28;20021;-67
2023/05/02 11:15:53;;;;;;;5.13;1.92;;;24.50;51.80;;;;;;5056446;28;20102;-65
2023/05/02 11:18:19;;;;;;;4.97;1.70;;;26.00;1.00;;;;;;5055649;28;20031;-64
2023/05/02 11:20:45;;;;;;;4.70;2.00;;;26.00;1.00;;;;;;5055614;28;20033;-63
2023/05/02 11:23:20;;;;;;;7.18;2.15;;;25.70;1.00;;;;;;5056236;28;20033;-65
2023/05/02 11:25:54;;;;;;;6.78;2.33;;;23.90;1.00;;;;;;5072297;28;20319;-65
2023/05/02 11:28:35;;;;;;;3.75;2.08;;;24.90;1.00;;;;;;5056272;28;20086;-65
2023/05/02 11:31:02;;;;;;;5.40;2.50;;;25.80;1.00;;;;;;5056260;28;20359;-64
2023/05/02 11:33:28;;;;;;;5.00;1.98;;;25.50;1.00;;;;;;5056190;28;20066;-63
2023/05/02 11:35:56;;;;;;;5.32;2.00;;;26.40;1.00;;;;;;5055525;28;20347;-66
2023/05/02 11:38:23;;;;;;;5.70;2.65;;;24.60;1.00;;;;;;5056356;28;20108;-70
2023/05/02 11:40:51;;;;;;;6.53;2.42;;;26.10;1.00;;;;;;5056196;28;20377;-68
2023/05/02 11:43:20;;;;;;;3.72;2.00;;;26.50;1.00;;;;;;5056165;28;20048;-64
2023/05/02 11:45:46;;;;;;;7.32;2.30;;;26.70;1.00;;;;;;5056502;28;20112;-65
2023/05/02 11:48:14;;;;;;;3.45;1.95;;;24.50;1.00;;;;;;5056761;28;20090;-68
2023/05/02 11:50:42;;;;;;;4.90;2.30;;;23.90;1.00;;;;;;5042681;28;20041;-69
2023/05/02 11:53:13;;;;;;;5.32;2.30;;;24.80;1.00;;;;;;5092390;28;20040;-67
2023/05/02 11:55:48;;;;;;;6.85;2.45;;;24.60;1.00;;;;;;5060165;28;20033;-64
2023/05/02 11:58:19;;;;;;;5.13;2.30;;;24.60;1.00;;;;;;5059742;28;20307;-66
2023/05/02 12:00:46;;;;;;;6.78;2.45;;;24.50;1.00;;;;;;5060189;28;20029;-65
2023/05/02 12:03:21;;;;;;;5.50;2.47;;;25.60;1.00;;;;;;5058509;28;20292;-65
2023/05/02 12:05:46;;;;;;;7.10;2.75;;;25.70;1.00;;;;;;5059489;28;20029;-66
2023/05/02 12:08:39;;;;;;;5.28;2.30;;;24.80;1.00;;;;;;5092132;28;20139;-64
2023/05/02 12:11:05;;;;;;;5.57;2.13;;;23.80;1.00;;;;;;5057022;28;20045;-64
2023/05/02 12:13:31;;;;;;;5.07;2.20;;;23.50;1.00;;;;;;5059173;28;20119;-66
2023/05/02 12:15:58;;;;;;;4.05;2.22;;;25.40;1.00;;;;;;5059271;28;20286;-69
2023/05/02 12:18:25;;;;;;;6.40;2.10;;;26.10;1.00;;;;;;5059118;28;20044;-65
2023/05/02 12:20:53;;;;;;;4.40;2.10;;;26.90;99.90;;;;;;5058673;28;20104;-66
2023/05/02 12:23:20;;;;;;;4.28;1.95;;;26.50;99.90;;;;;;5057974;28;20033;-68
2023/05/02 12:25:47;;;;;;;6.35;2.10;;;27.60;99.90;;;;;;5058160;28;20032;-66
2023/05/02 12:28:13;;;;;;;4.93;2.25;;;28.20;99.90;;;;;;5058277;28;20099;-67
2023/05/02 12:30:40;;;;;;;5.18;2.22;;;29.20;99.90;;;;;;5058991;28;20087;-65
2023/05/02 12:33:06;;;;;;;5.40;2.05;;;30.30;99.90;;;;;;5058040;28;20032;-66
2023/05/02 12:35:34;;;;;;;6.32;2.47;;;31.10;99.90;;;;;;5058050;28;20329;-67
2023/05/02 12:38:10;;;;;;;6.05;2.33;;;30.50;99.90;;;;;;5058737;28;20075;-64
2023/05/02 12:40:36;;;;;;;5.07;2.20;;;29.80;99.90;;;;;;5041423;28;20044;-67
2023/05/02 12:43:06;;;;;;;5.25;2.13;;;29.40;99.90;;;;;;5058487;28;20033;-65
2023/05/02 12:45:33;;;;;;;4.95;2.10;;;28.00;99.90;;;;;;5058570;28;20112;-65
2023/05/02 12:48:17;;;;;;;2.92;2.22;;;27.50;99.90;;;;;;5058810;28;20021;-65
2023/05/02 12:50:43;;;;;;;6.85;2.33;;;27.60;99.90;;;;;;5058891;28;20037;-67